sensor_id;sensor_type;location;lat;lon;timestamp;pressure;altitude;pressure_sealevel;temperature;humidity
79127;BME280;68528;48.814;8.904;2023-04-25T00:01:55;95785.91;;;6.09;78.59
79127;BME280;68528;48.814;8.904;2023-04-25T00:04:21;95779.16;;;6.03;79.45
79127;BME280;68528;48.814;8.904;2023-04-25T00:06:47;95780.13;;;5.95;79.72
79127;BME280;68528;48.814;8.904;2023-04-25T00:09:48;95764.50;;;5.92;80.00
79127;BME280;68528;48.814;8.904;2023-04-25T00:12:13;95787.31;;;6.03;79.55
79127;BME280;68528;48.814;8.904;2023-04-25T00:14:38;95793.53;;;6.04;79.56
79127;BME280;68528;48.814;8.904;2023-04-25T00:17:05;95796.88;;;5.97;79.78
79127;BME280;68528;48.814;8.904;2023-04-25T00:19:31;95794.41;;;5.92;80.42
79127;BME280;68528;48.814;8.904;2023-04-25T00:21:57;95796.91;;;5.85;80.47
79127;BME280;68528;48.814;8.904;2023-04-25T00:24:23;95790.84;;;5.76;81.27
79127;BME280;68528;48.814;8.904;2023-04-25T00:26:48;95797.84;;;5.77;80.60
79127;BME280;68528;48.814;8.904;2023-04-25T00:29:14;95791.28;;;5.78;81.21
79127;BME280;68528;48.814;8.904;2023-04-25T00:31:40;95789.16;;;5.72;81.27
79127;BME280;68528;48.814;8.904;2023-04-25T00:34:06;95786.28;;;5.80;80.47
79127;BME280;68528;48.814;8.904;2023-04-25T00:36:33;95775.22;;;5.73;81.47
79127;BME280;68528;48.814;8.904;2023-04-25T00:38:58;95777.50;;;5.71;81.22
79127;BME280;68528;48.814;8.904;2023-04-25T00:41:25;95777.75;;;5.66;81.26
79127;BME280;68528;48.814;8.904;2023-04-25T00:43:55;95779.09;;;5.72;81.46
79127;BME280;68528;48.814;8.904;2023-04-25T00:46:26;95786.09;;;5.73;81.22
79127;BME280;68528;48.814;8.904;2023-04-25T00:48:55;95765.25;;;5.77;81.33
79127;BME280;68528;48.814;8.904;2023-04-25T00:51:21;95764.56;;;5.80;80.98
79127;BME280;68528;48.814;8.904;2023-04-25T00:53:48;95767.03;;;5.85;81.64
79127;BME280;68528;48.814;8.904;2023-04-25T00:56:15;95757.03;;;5.89;80.57
79127;BME280;68528;48.814;8.904;2023-04-25T00:58:41;95760.31;;;5.95;80.33
79127;BME280;68528;48.814;8.904;2023-04-25T01:01:08;95760.91;;;5.88;80.56
79127;BME280;68528;48.814;8.904;2023-04-25T01:03:34;95767.59;;;5.79;81.09
79127;BME280;68528;48.814;8.904;2023-04-25T01:06:09;95760.75;;;5.69;81.04
79127;BME280;68528;48.814;8.904;2023-04-25T01:08:36;95755.69;;;5.68;80.90
79127;BME280;68528;48.814;8.904;2023-04-25T01:11:03;95760.56;;;5.62;80.65
79127;BME280;68528;48.814;8.904;2023-04-25T01:13:29;95757.56;;;5.51;81.34
79127;BME280;68528;48.814;8.904;2023-04-25T01:15:57;95757.25;;;5.53;81.15
79127;BME280;68528;48.814;8.904;2023-04-25T01:18:23;95751.81;;;5.53;81.61
79127;BME280;68528;48.814;8.904;2023-04-25T01:20:51;95747.84;;;5.50;81.60
79127;BME280;68528;48.814;8.904;2023-04-25T01:23:16;95748.66;;;5.51;81.85
79127;BME280;68528;48.814;8.904;2023-04-25T01:25:42;95750.94;;;5.49;81.36
79127;BME280;68528;48.814;8.904;2023-04-25T01:28:09;95757.25;;;5.53;80.89
79127;BME280;68528;48.814;8.904;2023-04-25T01:30:35;95739.78;;;5.54;80.22
79127;BME280;68528;48.814;8.904;2023-04-25T01:33:01;95751.38;;;5.51;80.49
79127;BME280;68528;48.814;8.904;2023-04-25T01:35:29;95758.88;;;5.42;80.81
79127;BME280;68528;48.814;8.904;2023-04-25T01:37:55;95756.50;;;5.40;80.77
79127;BME280;68528;48.814;8.904;2023-04-25T01:40:22;95753.22;;;5.35;81.53
79127;BME280;68528;48.814;8.904;2023-04-25T01:42:50;95765.56;;;5.32;81.04
79127;BME280;68528;48.814;8.904;2023-04-25T01:45:16;95766.47;;;5.36;81.51
79127;BME280;68528;48.814;8.904;2023-04-25T01:47:42;95770.41;;;5.39;81.53
79127;BME280;68528;48.814;8.904;2023-04-25T01:50:09;95764.31;;;5.42;81.23
79127;BME280;68528;48.814;8.904;2023-04-25T01:52:36;95759.97;;;5.53;80.47
79127;BME280;68528;48.814;8.904;2023-04-25T01:55:02;95750.84;;;5.61;80.51
79127;BME280;68528;48.814;8.904;2023-04-25T01:57:27;95747.78;;;5.63;80.55
79127;BME280;68528;48.814;8.904;2023-04-25T02:00:03;95746.31;;;5.65;80.61
79127;BME280;68528;48.814;8.904;2023-04-25T02:02:30;95745.16;;;5.66;79.70
79127;BME280;68528;48.814;8.904;2023-04-25T02:04:55;95745.50;;;5.65;80.18
79127;BME280;68528;48.814;8.904;2023-04-25T02:07:21;95747.50;;;5.52;81.07
79127;BME280;68528;48.814;8.904;2023-04-25T02:09:47;95743.38;;;5.58;80.23
79127;BME280;68528;48.814;8.904;2023-04-25T02:12:12;95750.41;;;5.59;80.61
79127;BME280;68528;48.814;8.904;2023-04-25T02:14:38;95747.69;;;5.59;80.76
79127;BME280;68528;48.814;8.904;2023-04-25T02:17:03;95748.28;;;5.52;80.72
79127;BME280;68528;48.814;8.904;2023-04-25T02:19:30;95739.78;;;5.54;81.36
79127;BME280;68528;48.814;8.904;2023-04-25T02:21:56;95738.38;;;5.44;81.67
79127;BME280;68528;48.814;8.904;2023-04-25T02:24:22;95739.16;;;5.45;80.77
79127;BME280;68528;48.814;8.904;2023-04-25T02:26:48;95735.47;;;5.37;81.25
79127;BME280;68528;48.814;8.904;2023-04-25T02:29:14;95737.44;;;5.25;81.52
79127;BME280;68528;48.814;8.904;2023-04-25T02:31:40;95737.75;;;5.08;83.34
79127;BME280;68528;48.814;8.904;2023-04-25T02:34:07;95737.75;;;5.08;82.22
79127;BME280;68528;48.814;8.904;2023-04-25T02:36:32;95742.44;;;5.23;82.04
79127;BME280;68528;48.814;8.904;2023-04-25T02:39:01;95731.63;;;5.11;82.62
79127;BME280;68528;48.814;8.904;2023-04-25T02:41:27;95735.47;;;5.10;81.52
79127;BME280;68528;48.814;8.904;2023-04-25T02:43:52;95746.38;;;4.98;82.30
79127;BME280;68528;48.814;8.904;2023-04-25T02:46:18;95730.31;;;4.93;82.66
79127;BME280;68528;48.814;8.904;2023-04-25T02:48:43;95735.06;;;4.96;82.87
79127;BME280;68528;48.814;8.904;2023-04-25T02:51:08;95736.91;;;4.92;82.91
79127;BME280;68528;48.814;8.904;2023-04-25T02:53:35;95743.00;;;4.89;83.30
79127;BME280;68528;48.814;8.904;2023-04-25T02:56:02;95740.00;;;5.06;82.82
79127;BME280;68528;48.814;8.904;2023-04-25T02:58:28;95735.72;;;5.05;84.15
79127;BME280;68528;48.814;8.904;2023-04-25T03:00:53;95725.41;;;5.10;83.88
79127;BME280;68528;48.814;8.904;2023-04-25T03:03:19;95713.69;;;5.22;83.40
79127;BME280;68528;48.814;8.904;2023-04-25T03:05:48;95714.13;;;5.24;83.34
79127;BME280;68528;48.814;8.904;2023-04-25T03:08:14;95719.97;;;5.38;82.49
79127;BME280;68528;48.814;8.904;2023-04-25T03:10:39;95710.81;;;5.15;83.95
79127;BME280;68528;48.814;8.904;2023-04-25T03:13:05;95717.63;;;5.09;84.05
79127;BME280;68528;48.814;8.904;2023-04-25T03:15:30;95706.22;;;5.03;84.54
79127;BME280;68528;48.814;8.904;2023-04-25T03:17:56;95719.63;;;5.12;83.69
79127;BME280;68528;48.814;8.904;2023-04-25T03:20:21;95714.59;;;5.26;83.08
79127;BME280;68528;48.814;8.904;2023-04-25T03:22:47;95716.81;;;5.08;83.43
79127;BME280;68528;48.814;8.904;2023-04-25T03:25:12;95713.47;;;4.99;84.47
79127;BME280;68528;48.814;8.904;2023-04-25T03:27:38;95711.50;;;5.12;83.63
79127;BME280;68528;48.814;8.904;2023-04-25T03:30:04;95719.19;;;5.10;83.69
79127;BME280;68528;48.814;8.904;2023-04-25T03:32:29;95718.06;;;5.11;84.07
79127;BME280;68528;48.814;8.904;2023-04-25T03:34:55;95721.84;;;5.22;83.68
79127;BME280;68528;48.814;8.904;2023-04-25T03:37:21;95716.63;;;5.29;82.64
79127;BME280;68528;48.814;8.904;2023-04-25T03:39:46;95715.75;;;5.25;82.97
79127;BME280;68528;48.814;8.904;2023-04-25T03:42:12;95718.38;;;5.37;82.72
79127;BME280;68528;48.814;8.904;2023-04-25T03:44:38;95714.72;;;5.45;82.23
79127;BME280;68528;48.814;8.904;2023-04-25T03:47:04;95704.84;;;5.52;81.83
79127;BME280;68528;48.814;8.904;2023-04-25T03:49:31;95705.88;;;5.48;81.63
79127;BME280;68528;48.814;8.904;2023-04-25T03:51:56;95709.13;;;5.38;82.29
79127;BME280;68528;48.814;8.904;2023-04-25T03:54:23;95707.53;;;5.37;81.73
79127;BME280;68528;48.814;8.904;2023-04-25T03:56:48;95706.56;;;5.29;82.72
79127;BME280;68528;48.814;8.904;2023-04-25T03:59:14;95702.09;;;5.37;82.74
79127;BME280;68528;48.814;8.904;2023-04-25T04:01:39;95695.69;;;5.29;82.94
79127;BME280;68528;48.814;8.904;2023-04-25T04:04:05;95708.91;;;5.31;82.85
79127;BME280;68528;48.814;8.904;2023-04-25T04:06:30;95699.22;;;5.30;83.57
79127;BME280;68528;48.814;8.904;2023-04-25T04:08:56;95708.22;;;5.34;83.14
79127;BME280;68528;48.814;8.904;2023-04-25T04:11:22;95705.31;;;5.27;82.81
79127;BME280;68528;48.814;8.904;2023-04-25T04:13:47;95698.56;;;5.21;82.90
79127;BME280;68528;48.814;8.904;2023-04-25T04:16:12;95702.84;;;5.22;83.46
79127;BME280;68528;48.814;8.904;2023-04-25T04:18:38;95707.34;;;5.30;82.76
79127;BME280;68528;48.814;8.904;2023-04-25T04:21:03;95705.25;;;5.39;82.97
79127;BME280;68528;48.814;8.904;2023-04-25T04:23:29;95711.13;;;5.41;82.68
79127;BME280;68528;48.814;8.904;2023-04-25T04:25:56;95713.34;;;5.51;81.96
79127;BME280;68528;48.814;8.904;2023-04-25T04:28:22;95716.50;;;5.53;82.15
79127;BME280;68528;48.814;8.904;2023-04-25T04:30:47;95717.38;;;5.57;82.21
79127;BME280;68528;48.814;8.904;2023-04-25T04:33:13;95707.41;;;5.61;81.64
79127;BME280;68528;48.814;8.904;2023-04-25T04:35:42;95724.66;;;5.53;82.34
79127;BME280;68528;48.814;8.904;2023-04-25T04:38:11;95723.31;;;5.47;82.32
79127;BME280;68528;48.814;8.904;2023-04-25T04:40:36;95734.38;;;5.54;82.54
79127;BME280;68528;48.814;8.904;2023-04-25T04:43:02;95725.38;;;5.66;82.10
79127;BME280;68528;48.814;8.904;2023-04-25T04:45:28;95739.28;;;5.64;81.64
79127;BME280;68528;48.814;8.904;2023-04-25T04:48:14;95731.72;;;5.57;82.23
79127;BME280;68528;48.814;8.904;2023-04-25T04:50:40;95739.00;;;5.53;82.58
79127;BME280;68528;48.814;8.904;2023-04-25T04:53:06;95738.41;;;5.60;82.36
79127;BME280;68528;48.814;8.904;2023-04-25T04:55:32;95749.19;;;5.56;82.59
79127;BME280;68528;48.814;8.904;2023-04-25T04:57:59;95753.47;;;5.57;81.25
79127;BME280;68528;48.814;8.904;2023-04-25T05:00:27;95752.69;;;5.57;81.77
79127;BME280;68528;48.814;8.904;2023-04-25T05:02:55;95756.09;;;5.54;81.88
79127;BME280;68528;48.814;8.904;2023-04-25T05:05:20;95751.25;;;5.47;81.38
79127;BME280;68528;48.814;8.904;2023-04-25T05:07:46;95758.16;;;5.45;81.97
79127;BME280;68528;48.814;8.904;2023-04-25T05:10:11;95744.16;;;5.43;81.75
79127;BME280;68528;48.814;8.904;2023-04-25T05:12:37;95752.84;;;5.48;80.69
79127;BME280;68528;48.814;8.904;2023-04-25T05:15:04;95751.41;;;5.39;81.32
79127;BME280;68528;48.814;8.904;2023-04-25T05:17:49;95740.59;;;5.27;80.91
79127;BME280;68528;48.814;8.904;2023-04-25T05:20:18;95744.22;;;5.31;80.88
79127;BME280;68528;48.814;8.904;2023-04-25T05:23:07;95749.69;;;5.46;81.76
79127;BME280;68528;48.814;8.904;2023-04-25T05:25:32;95747.31;;;5.45;82.34
79127;BME280;68528;48.814;8.904;2023-04-25T05:27:58;95749.47;;;5.39;82.76
79127;BME280;68528;48.814;8.904;2023-04-25T05:30:23;95746.63;;;5.48;82.11
79127;BME280;68528;48.814;8.904;2023-04-25T05:32:49;95742.06;;;5.52;81.10
79127;BME280;68528;48.814;8.904;2023-04-25T05:35:15;95747.41;;;5.48;81.28
79127;BME280;68528;48.814;8.904;2023-04-25T05:37:42;95748.81;;;5.42;82.09
79127;BME280;68528;48.814;8.904;2023-04-25T05:40:08;95749.97;;;5.57;82.63
79127;BME280;68528;48.814;8.904;2023-04-25T05:42:34;95746.09;;;5.58;82.42
79127;BME280;68528;48.814;8.904;2023-04-25T05:45:00;95753.13;;;5.59;80.63
79127;BME280;68528;48.814;8.904;2023-04-25T05:47:26;95751.81;;;5.53;81.32
79127;BME280;68528;48.814;8.904;2023-04-25T05:49:55;95746.69;;;5.51;81.60
79127;BME280;68528;48.814;8.904;2023-04-25T05:52:20;95757.47;;;5.48;80.63
79127;BME280;68528;48.814;8.904;2023-04-25T05:54:45;95745.38;;;5.45;81.19
79127;BME280;68528;48.814;8.904;2023-04-25T06:00:18;95749.78;;;5.50;80.92
79127;BME280;68528;48.814;8.904;2023-04-25T06:02:44;95747.44;;;5.64;81.67
79127;BME280;68528;48.814;8.904;2023-04-25T06:05:12;95755.34;;;5.69;80.92
79127;BME280;68528;48.814;8.904;2023-04-25T06:07:37;95751.13;;;5.72;81.06
79127;BME280;68528;48.814;8.904;2023-04-25T06:10:03;95756.84;;;5.82;79.98
79127;BME280;68528;48.814;8.904;2023-04-25T06:12:31;95762.97;;;5.79;80.09
79127;BME280;68528;48.814;8.904;2023-04-25T06:15:15;95762.28;;;5.82;80.41
79127;BME280;68528;48.814;8.904;2023-04-25T06:18:01;95763.84;;;5.83;81.36
79127;BME280;68528;48.814;8.904;2023-04-25T06:20:26;95753.47;;;6.01;79.86
79127;BME280;68528;48.814;8.904;2023-04-25T06:22:52;95752.59;;;5.97;80.22
79127;BME280;68528;48.814;8.904;2023-04-25T06:25:17;95754.88;;;5.95;80.04
79127;BME280;68528;48.814;8.904;2023-04-25T06:27:43;95749.44;;;5.95;80.81
79127;BME280;68528;48.814;8.904;2023-04-25T06:30:08;95750.75;;;6.01;79.29
79127;BME280;68528;48.814;8.904;2023-04-25T06:32:34;95751.63;;;6.05;79.54
79127;BME280;68528;48.814;8.904;2023-04-25T06:35:08;95756.44;;;6.11;80.42
79127;BME280;68528;48.814;8.904;2023-04-25T06:37:34;95754.59;;;6.15;80.46
79127;BME280;68528;48.814;8.904;2023-04-25T06:40:00;95751.44;;;6.13;80.72
79127;BME280;68528;48.814;8.904;2023-04-25T06:42:25;95755.31;;;6.12;81.36
79127;BME280;68528;48.814;8.904;2023-04-25T06:44:50;95751.81;;;6.12;80.96
79127;BME280;68528;48.814;8.904;2023-04-25T06:47:16;95756.00;;;6.09;80.95
79127;BME280;68528;48.814;8.904;2023-04-25T06:49:41;95756.81;;;6.10;81.30
79127;BME280;68528;48.814;8.904;2023-04-25T06:52:07;95750.84;;;6.20;81.73
79127;BME280;68528;48.814;8.904;2023-04-25T06:54:33;95749.78;;;6.09;82.52
79127;BME280;68528;48.814;8.904;2023-04-25T06:56:59;95754.41;;;6.08;82.92
79127;BME280;68528;48.814;8.904;2023-04-25T06:59:26;95751.44;;;5.98;84.24
79127;BME280;68528;48.814;8.904;2023-04-25T07:01:51;95746.88;;;5.86;84.34
79127;BME280;68528;48.814;8.904;2023-04-25T07:04:16;95754.38;;;5.77;84.97
79127;BME280;68528;48.814;8.904;2023-04-25T07:06:44;95753.06;;;5.71;86.15
79127;BME280;68528;48.814;8.904;2023-04-25T07:09:11;95748.78;;;5.70;86.11
79127;BME280;68528;48.814;8.904;2023-04-25T07:11:39;95763.31;;;5.78;85.37
79127;BME280;68528;48.814;8.904;2023-04-25T07:14:25;95766.25;;;5.85;85.51
79127;BME280;68528;48.814;8.904;2023-04-25T07:16:52;95764.19;;;5.82;84.75
79127;BME280;68528;48.814;8.904;2023-04-25T07:19:17;95758.19;;;5.88;85.85
79127;BME280;68528;48.814;8.904;2023-04-25T07:21:45;95762.47;;;5.89;85.06
79127;BME280;68528;48.814;8.904;2023-04-25T07:24:13;95760.56;;;5.90;84.33
79127;BME280;68528;48.814;8.904;2023-04-25T07:26:39;95773.34;;;5.89;84.86
79127;BME280;68528;48.814;8.904;2023-04-25T07:29:29;95778.16;;;5.96;84.92
79127;BME280;68528;48.814;8.904;2023-04-25T07:31:55;95776.69;;;5.98;85.66
79127;BME280;68528;48.814;8.904;2023-04-25T07:34:22;95786.88;;;6.01;84.83
79127;BME280;68528;48.814;8.904;2023-04-25T07:36:47;95775.22;;;6.01;84.94
79127;BME280;68528;48.814;8.904;2023-04-25T07:39:13;95776.16;;;6.08;85.45
79127;BME280;68528;48.814;8.904;2023-04-25T07:41:38;95786.34;;;6.11;85.17
79127;BME280;68528;48.814;8.904;2023-04-25T07:44:04;95772.41;;;6.13;85.24
79127;BME280;68528;48.814;8.904;2023-04-25T07:46:30;95778.28;;;6.15;85.56
79127;BME280;68528;48.814;8.904;2023-04-25T07:48:55;95783.72;;;6.30;84.79
79127;BME280;68528;48.814;8.904;2023-04-25T07:51:21;95795.22;;;6.24;85.16
79127;BME280;68528;48.814;8.904;2023-04-25T07:53:48;95786.09;;;6.32;84.68
79127;BME280;68528;48.814;8.904;2023-04-25T07:56:14;95791.09;;;6.30;84.79
79127;BME280;68528;48.814;8.904;2023-04-25T07:58:39;95797.13;;;6.39;84.91
79127;BME280;68528;48.814;8.904;2023-04-25T08:01:04;95794.16;;;6.44;85.63
79127;BME280;68528;48.814;8.904;2023-04-25T08:03:30;95799.81;;;6.55;85.28
79127;BME280;68528;48.814;8.904;2023-04-25T08:05:55;95799.13;;;6.58;83.90
79127;BME280;68528;48.814;8.904;2023-04-25T08:08:21;95806.88;;;6.56;84.27
79127;BME280;68528;48.814;8.904;2023-04-25T08:10:47;95810.47;;;6.60;83.80
79127;BME280;68528;48.814;8.904;2023-04-25T08:13:13;95808.34;;;6.53;82.90
79127;BME280;68528;48.814;8.904;2023-04-25T08:15:39;95807.66;;;6.56;83.32
79127;BME280;68528;48.814;8.904;2023-04-25T08:18:04;95813.00;;;6.53;84.37
79127;BME280;68528;48.814;8.904;2023-04-25T08:20:31;95821.00;;;6.46;84.39
79127;BME280;68528;48.814;8.904;2023-04-25T08:22:56;95829.69;;;6.36;84.32
79127;BME280;68528;48.814;8.904;2023-04-25T08:25:22;95822.16;;;6.29;84.46
79127;BME280;68528;48.814;8.904;2023-04-25T08:27:49;95829.75;;;6.23;84.52
79127;BME280;68528;48.814;8.904;2023-04-25T08:30:16;95840.63;;;6.23;84.37
79127;BME280;68528;48.814;8.904;2023-04-25T08:32:42;95841.50;;;6.12;85.65
79127;BME280;68528;48.814;8.904;2023-04-25T08:35:07;95841.16;;;6.13;84.72
79127;BME280;68528;48.814;8.904;2023-04-25T08:37:33;95847.56;;;6.05;85.85
79127;BME280;68528;48.814;8.904;2023-04-25T08:39:58;95848.34;;;6.06;85.99
79127;BME280;68528;48.814;8.904;2023-04-25T08:42:24;95853.78;;;6.06;86.79
79127;BME280;68528;48.814;8.904;2023-04-25T08:44:53;95850.94;;;6.02;87.09
79127;BME280;68528;48.814;8.904;2023-04-25T08:47:22;95859.47;;;6.01;87.57
79127;BME280;68528;48.814;8.904;2023-04-25T08:49:47;95860.84;;;5.95;86.10
79127;BME280;68528;48.814;8.904;2023-04-25T08:52:14;95862.97;;;6.01;86.83
79127;BME280;68528;48.814;8.904;2023-04-25T08:54:43;95876.28;;;6.06;86.77
79127;BME280;68528;48.814;8.904;2023-04-25T08:57:12;95871.94;;;6.02;86.58
79127;BME280;68528;48.814;8.904;2023-04-25T08:59:39;95884.28;;;5.99;85.93
79127;BME280;68528;48.814;8.904;2023-04-25T09:02:04;95876.59;;;5.89;86.45
79127;BME280;68528;48.814;8.904;2023-04-25T09:04:56;95894.25;;;5.83;85.90
79127;BME280;68528;48.814;8.904;2023-04-25T09:07:23;95897.72;;;5.68;86.70
79127;BME280;68528;48.814;8.904;2023-04-25T09:09:50;95891.59;;;5.71;85.78
79127;BME280;68528;48.814;8.904;2023-04-25T09:12:18;95899.97;;;5.66;85.90
79127;BME280;68528;48.814;8.904;2023-04-25T09:15:03;95912.44;;;5.67;85.15
79127;BME280;68528;48.814;8.904;2023-04-25T09:17:30;95904.38;;;5.71;84.85
79127;BME280;68528;48.814;8.904;2023-04-25T09:20:05;95919.25;;;5.61;85.55
79127;BME280;68528;48.814;8.904;2023-04-25T09:22:31;95924.78;;;5.65;85.79
79127;BME280;68528;48.814;8.904;2023-04-25T09:24:57;95926.38;;;5.66;85.95
79127;BME280;68528;48.814;8.904;2023-04-25T09:27:22;95924.44;;;5.66;85.75
79127;BME280;68528;48.814;8.904;2023-04-25T09:29:57;95933.38;;;5.67;85.27
79127;BME280;68528;48.814;8.904;2023-04-25T09:32:24;95933.69;;;5.77;85.56
79127;BME280;68528;48.814;8.904;2023-04-25T09:34:52;95938.44;;;5.80;85.80
79127;BME280;68528;48.814;8.904;2023-04-25T09:37:22;95940.94;;;5.85;84.81
79127;BME280;68528;48.814;8.904;2023-04-25T09:39:50;95941.81;;;5.89;86.01
79127;BME280;68528;48.814;8.904;2023-04-25T09:42:18;95935.78;;;5.96;84.38
79127;BME280;68528;48.814;8.904;2023-04-25T09:44:47;95937.75;;;5.95;84.55
79127;BME280;68528;48.814;8.904;2023-04-25T09:47:15;95949.97;;;5.89;84.71
79127;BME280;68528;48.814;8.904;2023-04-25T09:49:42;95955.19;;;5.94;85.53
79127;BME280;68528;48.814;8.904;2023-04-25T09:52:08;95950.75;;;6.02;84.68
79127;BME280;68528;48.814;8.904;2023-04-25T09:54:34;95959.19;;;6.12;84.69
79127;BME280;68528;48.814;8.904;2023-04-25T09:57:25;95964.47;;;6.21;84.80
79127;BME280;68528;48.814;8.904;2023-04-25T09:59:54;95965.66;;;6.08;83.75
79127;BME280;68528;48.814;8.904;2023-04-25T10:02:24;95970.38;;;5.95;83.92
79127;BME280;68528;48.814;8.904;2023-04-25T10:04:52;95970.81;;;5.97;83.75
79127;BME280;68528;48.814;8.904;2023-04-25T10:07:25;95969.56;;;5.95;84.56
79127;BME280;68528;48.814;8.904;2023-04-25T10:09:58;95974.72;;;6.00;85.16
79127;BME280;68528;48.814;8.904;2023-04-25T10:12:28;95978.59;;;5.99;85.14
79127;BME280;68528;48.814;8.904;2023-04-25T10:14:54;95978.69;;;6.02;85.13
79127;BME280;68528;48.814;8.904;2023-04-25T10:17:25;95981.41;;;6.02;84.20
79127;BME280;68528;48.814;8.904;2023-04-25T10:19:52;95987.56;;;5.99;85.36
79127;BME280;68528;48.814;8.904;2023-04-25T10:22:26;95985.91;;;6.10;84.13
79127;BME280;68528;48.814;8.904;2023-04-25T10:24:55;95991.97;;;6.04;84.16
79127;BME280;68528;48.814;8.904;2023-04-25T10:27:21;96004.63;;;6.00;85.01
79127;BME280;68528;48.814;8.904;2023-04-25T10:30:01;96004.56;;;5.84;85.82
79127;BME280;68528;48.814;8.904;2023-04-25T10:32:33;96010.81;;;5.61;84.79
79127;BME280;68528;48.814;8.904;2023-04-25T10:35:14;96017.97;;;5.53;85.89
79127;BME280;68528;48.814;8.904;2023-04-25T10:38:03;96014.78;;;5.39;86.35
79127;BME280;68528;48.814;8.904;2023-04-25T10:40:32;96012.97;;;5.31;85.94
79127;BME280;68528;48.814;8.904;2023-04-25T10:43:33;96022.59;;;5.28;86.55
79127;BME280;68528;48.814;8.904;2023-04-25T10:46:02;96029.38;;;5.34;84.53
79127;BME280;68528;48.814;8.904;2023-04-25T10:48:31;96026.09;;;5.53;86.75
79127;BME280;68528;48.814;8.904;2023-04-25T10:51:27;96028.09;;;5.68;83.42
79127;BME280;68528;48.814;8.904;2023-04-25T10:54:07;96027.44;;;5.71;85.35
79127;BME280;68528;48.814;8.904;2023-04-25T10:56:35;96039.66;;;5.65;84.08
79127;BME280;68528;48.814;8.904;2023-04-25T10:59:07;96037.72;;;5.78;86.17
79127;BME280;68528;48.814;8.904;2023-04-25T11:01:40;96038.28;;;5.83;85.50
79127;BME280;68528;48.814;8.904;2023-04-25T11:04:30;96043.25;;;5.81;85.71
79127;BME280;68528;48.814;8.904;2023-04-25T11:07:34;96047.69;;;5.74;84.51
79127;BME280;68528;48.814;8.904;2023-04-25T11:10:03;96044.31;;;5.65;84.45
79127;BME280;68528;48.814;8.904;2023-04-25T11:12:36;96045.22;;;5.56;84.77
79127;BME280;68528;48.814;8.904;2023-04-25T11:15:06;96044.88;;;5.58;85.26
79127;BME280;68528;48.814;8.904;2023-04-25T11:17:32;96042.16;;;5.58;85.68
79127;BME280;68528;48.814;8.904;2023-04-25T11:19:58;96048.06;;;5.84;85.56
79127;BME280;68528;48.814;8.904;2023-04-25T11:22:24;96051.00;;;5.91;84.20
79127;BME280;68528;48.814;8.904;2023-04-25T11:24:51;96053.50;;;5.84;83.35
79127;BME280;68528;48.814;8.904;2023-04-25T11:27:17;96061.38;;;5.77;83.04
79127;BME280;68528;48.814;8.904;2023-04-25T11:29:43;96055.41;;;5.72;82.47
79127;BME280;68528;48.814;8.904;2023-04-25T11:32:10;96056.19;;;5.72;84.14
79127;BME280;68528;48.814;8.904;2023-04-25T11:34:37;96058.47;;;5.70;83.67
79127;BME280;68528;48.814;8.904;2023-04-25T11:37:28;96062.31;;;5.69;83.43
79127;BME280;68528;48.814;8.904;2023-04-25T11:39:56;96052.09;;;5.66;84.03
79127;BME280;68528;48.814;8.904;2023-04-25T11:42:22;96057.97;;;5.68;83.26
79127;BME280;68528;48.814;8.904;2023-04-25T11:44:48;96068.19;;;5.71;83.98
79127;BME280;68528;48.814;8.904;2023-04-25T11:47:13;96064.34;;;5.84;83.24
79127;BME280;68528;48.814;8.904;2023-04-25T11:49:40;96070.22;;;5.98;83.30
79127;BME280;68528;48.814;8.904;2023-04-25T11:52:08;96070.66;;;6.12;83.75
79127;BME280;68528;48.814;8.904;2023-04-25T11:54:37;96067.91;;;6.24;83.60
79127;BME280;68528;48.814;8.904;2023-04-25T11:57:06;96063.75;;;6.43;82.86
79127;BME280;68528;48.814;8.904;2023-04-25T11:59:31;96070.06;;;6.59;82.91
79127;BME280;68528;48.814;8.904;2023-04-25T12:01:57;96069.56;;;6.84;80.66
79127;BME280;68528;48.814;8.904;2023-04-25T12:04:24;96066.97;;;6.88;80.38
79127;BME280;68528;48.814;8.904;2023-04-25T12:06:54;96072.34;;;7.00;81.49
79127;BME280;68528;48.814;8.904;2023-04-25T12:09:21;96070.69;;;7.11;80.05
79127;BME280;68528;48.814;8.904;2023-04-25T12:11:55;96075.38;;;7.26;80.00
79127;BME280;68528;48.814;8.904;2023-04-25T12:14:23;96072.00;;;7.17;79.09
79127;BME280;68528;48.814;8.904;2023-04-25T12:16:54;96070.69;;;7.27;80.29
79127;BME280;68528;48.814;8.904;2023-04-25T12:19:21;96075.97;;;7.20;81.32
79127;BME280;68528;48.814;8.904;2023-04-25T12:21:47;96081.50;;;7.23;80.60
79127;BME280;68528;48.814;8.904;2023-04-25T12:24:21;96074.50;;;7.22;79.74
79127;BME280;68528;48.814;8.904;2023-04-25T12:27:05;96079.41;;;7.32;80.94
79127;BME280;68528;48.814;8.904;2023-04-25T12:29:32;96081.00;;;7.64;79.60
79127;BME280;68528;48.814;8.904;2023-04-25T12:32:01;96075.88;;;7.78;79.58
79127;BME280;68528;48.814;8.904;2023-04-25T12:34:27;96081.50;;;7.85;79.35
79127;BME280;68528;48.814;8.904;2023-04-25T12:36:59;96080.41;;;8.06;75.71
79127;BME280;68528;48.814;8.904;2023-04-25T12:39:25;96078.41;;;8.22;77.47
79127;BME280;68528;48.814;8.904;2023-04-25T12:41:51;96086.72;;;8.25;76.21
79127;BME280;68528;48.814;8.904;2023-04-25T12:57:41;96095.41;;;8.15;76.80
79127;BME280;68528;48.814;8.904;2023-04-25T13:01:12;96089.63;;;8.01;78.62
79127;BME280;68528;48.814;8.904;2023-04-25T13:03:41;96105.19;;;8.01;77.04
79127;BME280;68528;48.814;8.904;2023-04-25T13:06:07;96100.00;;;8.11;78.34
79127;BME280;68528;48.814;8.904;2023-04-25T13:08:32;96106.47;;;8.22;76.37
79127;BME280;68528;48.814;8.904;2023-04-25T13:10:58;96106.19;;;8.43;77.16
79127;BME280;68528;48.814;8.904;2023-04-25T13:13:23;96100.72;;;8.43;75.63
79127;BME280;68528;48.814;8.904;2023-04-25T13:15:49;96107.03;;;8.47;76.03
79127;BME280;68528;48.814;8.904;2023-04-25T13:18:36;96097.56;;;8.41;73.46
79127;BME280;68528;48.814;8.904;2023-04-25T13:21:05;96103.59;;;8.31;73.87
79127;BME280;68528;48.814;8.904;2023-04-25T13:23:30;96106.84;;;8.21;74.74
79127;BME280;68528;48.814;8.904;2023-04-25T13:25:56;96103.94;;;8.14;76.49
79127;BME280;68528;48.814;8.904;2023-04-25T13:28:26;96111.00;;;8.15;75.96
79127;BME280;68528;48.814;8.904;2023-04-25T13:30:52;96108.41;;;8.22;75.64
79127;BME280;68528;48.814;8.904;2023-04-25T13:33:18;96107.63;;;8.37;76.22